sensor_id;sensor_type;location;lat;lon;timestamp;P1;durP1;ratioP1;P2;durP2;ratioP2
1082;SDS011;530;51.448;7.238;2023-09-19T00:00:19;5.40;;;2.33;;
1082;SDS011;530;51.448;7.238;2023-09-19T00:02:58;4.50;;;2.10;;
1082;SDS011;530;51.448;7.238;2023-09-19T00:05:27;4.63;;;1.80;;
1082;SDS011;530;51.448;7.238;2023-09-19T00:07:54;9.20;;;2.40;;
1082;SDS011;530;51.448;7.238;2023-09-19T00:10:23;2.90;;;1.80;;
1082;SDS011;530;51.448;7.238;2023-09-19T00:12:52;6.00;;;2.40;;
1082;SDS011;530;51.448;7.238;2023-09-19T00:15:22;7.00;;;2.00;;
1082;SDS011;530;51.448;7.238;2023-09-19T00:17:48;2.57;;;1.80;;
1082;SDS011;530;51.448;7.238;2023-09-19T00:20:14;4.00;;;2.37;;
1082;SDS011;530;51.448;7.238;2023-09-19T00:22:43;4.50;;;2.00;;
1082;SDS011;530;51.448;7.238;2023-09-19T00:25:09;4.40;;;2.10;;
1082;SDS011;530;51.448;7.238;2023-09-19T00:27:35;4.33;;;1.97;;
1082;SDS011;530;51.448;7.238;2023-09-19T00:30:06;13.30;;;3.10;;
1082;SDS011;530;51.448;7.238;2023-09-19T00:32:38;2.60;;;1.63;;
1082;SDS011;530;51.448;7.238;2023-09-19T00:35:04;2.80;;;2.00;;
1082;SDS011;530;51.448;7.238;2023-09-19T00:37:30;7.67;;;2.47;;
1082;SDS011;530;51.448;7.238;2023-09-19T00:39:55;5.30;;;1.97;;
1082;SDS011;530;51.448;7.238;2023-09-19T00:42:22;4.17;;;2.10;;
1082;SDS011;530;51.448;7.238;2023-09-19T00:44:47;8.70;;;2.80;;
1082;SDS011;530;51.448;7.238;2023-09-19T00:47:16;4.70;;;2.20;;
1082;SDS011;530;51.448;7.238;2023-09-19T00:49:43;7.03;;;2.43;;
1082;SDS011;530;51.448;7.238;2023-09-19T00:52:10;4.43;;;1.93;;
1082;SDS011;530;51.448;7.238;2023-09-19T00:54:37;7.40;;;2.70;;
1082;SDS011;530;51.448;7.238;2023-09-19T00:57:03;5.40;;;1.77;;
1082;SDS011;530;51.448;7.238;2023-09-19T00:59:29;7.30;;;2.87;;
1082;SDS011;530;51.448;7.238;2023-09-19T01:01:55;3.70;;;1.80;;
1082;SDS011;530;51.448;7.238;2023-09-19T01:04:22;6.87;;;2.00;;
1082;SDS011;530;51.448;7.238;2023-09-19T01:06:48;4.63;;;2.40;;
1082;SDS011;530;51.448;7.238;2023-09-19T01:09:19;5.60;;;1.77;;
1082;SDS011;530;51.448;7.238;2023-09-19T01:11:46;4.07;;;1.70;;
1082;SDS011;530;51.448;7.238;2023-09-19T01:14:29;7.00;;;3.13;;
1082;SDS011;530;51.448;7.238;2023-09-19T01:17:05;5.60;;;2.30;;
1082;SDS011;530;51.448;7.238;2023-09-19T01:22:53;6.77;;;2.50;;
1082;SDS011;530;51.448;7.238;2023-09-19T01:31:54;4.57;;;1.90;;
1082;SDS011;530;51.448;7.238;2023-09-19T01:34:42;7.03;;;2.30;;
1082;SDS011;530;51.448;7.238;2023-09-19T01:37:29;6.80;;;2.03;;
1082;SDS011;530;51.448;7.238;2023-09-19T01:46:07;4.03;;;2.10;;
1082;SDS011;530;51.448;7.238;2023-09-19T01:48:13;5.53;;;2.23;;
1082;SDS011;530;51.448;7.238;2023-09-19T01:51:07;3.80;;;1.70;;
1082;SDS011;530;51.448;7.238;2023-09-19T01:53:40;5.33;;;2.23;;
1082;SDS011;530;51.448;7.238;2023-09-19T01:56:09;4.00;;;1.80;;
1082;SDS011;530;51.448;7.238;2023-09-19T01:58:48;6.77;;;2.20;;
1082;SDS011;530;51.448;7.238;2023-09-19T02:01:16;3.90;;;1.97;;
1082;SDS011;530;51.448;7.238;2023-09-19T02:03:47;6.10;;;2.00;;
1082;SDS011;530;51.448;7.238;2023-09-19T02:06:15;5.17;;;2.43;;
1082;SDS011;530;51.448;7.238;2023-09-19T02:08:43;4.50;;;1.93;;
1082;SDS011;530;51.448;7.238;2023-09-19T02:11:10;3.50;;;2.10;;
1082;SDS011;530;51.448;7.238;2023-09-19T02:13:36;7.00;;;2.10;;
1082;SDS011;530;51.448;7.238;2023-09-19T02:16:03;5.10;;;2.13;;
1082;SDS011;530;51.448;7.238;2023-09-19T02:18:29;5.77;;;1.73;;
1082;SDS011;530;51.448;7.238;2023-09-19T02:20:56;4.00;;;2.27;;
1082;SDS011;530;51.448;7.238;2023-09-19T02:23:23;4.43;;;1.80;;
1082;SDS011;530;51.448;7.238;2023-09-19T02:25:53;5.77;;;2.00;;
1082;SDS011;530;51.448;7.238;2023-09-19T02:28:19;4.77;;;1.40;;
1082;SDS011;530;51.448;7.238;2023-09-19T02:30:48;3.80;;;2.03;;
1082;SDS011;530;51.448;7.238;2023-09-19T02:33:15;7.73;;;2.90;;
1082;SDS011;530;51.448;7.238;2023-09-19T02:35:42;4.13;;;2.17;;
1082;SDS011;530;51.448;7.238;2023-09-19T02:38:08;5.90;;;2.10;;
1082;SDS011;530;51.448;7.238;2023-09-19T02:40:36;7.23;;;2.23;;
1082;SDS011;530;51.448;7.238;2023-09-19T02:43:02;6.93;;;2.10;;
1082;SDS011;530;51.448;7.238;2023-09-19T02:45:30;4.53;;;2.70;;
1082;SDS011;530;51.448;7.238;2023-09-19T02:47:56;8.23;;;2.67;;
1082;SDS011;530;51.448;7.238;2023-09-19T02:50:22;7.90;;;2.33;;
1082;SDS011;530;51.448;7.238;2023-09-19T02:52:48;4.40;;;2.20;;
1082;SDS011;530;51.448;7.238;2023-09-19T02:55:15;6.23;;;2.10;;
1082;SDS011;530;51.448;7.238;2023-09-19T02:57:46;7.03;;;2.50;;
1082;SDS011;530;51.448;7.238;2023-09-19T03:00:16;4.30;;;2.43;;
1082;SDS011;530;51.448;7.238;2023-09-19T03:02:46;6.70;;;2.10;;
1082;SDS011;530;51.448;7.238;2023-09-19T03:05:21;7.73;;;2.70;;
1082;SDS011;530;51.448;7.238;2023-09-19T03:07:48;4.77;;;1.70;;
1082;SDS011;530;51.448;7.238;2023-09-19T03:10:18;6.90;;;2.10;;
1082;SDS011;530;51.448;7.238;2023-09-19T03:12:45;4.67;;;1.83;;
1082;SDS011;530;51.448;7.238;2023-09-19T03:15:11;8.40;;;2.20;;
1082;SDS011;530;51.448;7.238;2023-09-19T03:17:42;7.63;;;2.00;;
1082;SDS011;530;51.448;7.238;2023-09-19T03:20:09;3.27;;;1.97;;
1082;SDS011;530;51.448;7.238;2023-09-19T03:22:38;6.10;;;2.10;;
1082;SDS011;530;51.448;7.238;2023-09-19T03:25:05;5.90;;;1.90;;
1082;SDS011;530;51.448;7.238;2023-09-19T03:27:36;9.60;;;2.20;;
1082;SDS011;530;51.448;7.238;2023-09-19T03:30:02;7.50;;;2.60;;
1082;SDS011;530;51.448;7.238;2023-09-19T03:32:33;2.80;;;1.53;;
1082;SDS011;530;51.448;7.238;2023-09-19T03:35:00;6.00;;;2.03;;
1082;SDS011;530;51.448;7.238;2023-09-19T03:37:25;7.60;;;2.30;;
1082;SDS011;530;51.448;7.238;2023-09-19T03:39:51;3.97;;;2.07;;
1082;SDS011;530;51.448;7.238;2023-09-19T03:42:17;4.03;;;1.83;;
1082;SDS011;530;51.448;7.238;2023-09-19T03:44:43;5.40;;;2.17;;
1082;SDS011;530;51.448;7.238;2023-09-19T03:47:08;5.33;;;2.40;;
1082;SDS011;530;51.448;7.238;2023-09-19T03:49:34;4.83;;;2.63;;
1082;SDS011;530;51.448;7.238;2023-09-19T03:52:00;5.30;;;1.90;;
1082;SDS011;530;51.448;7.238;2023-09-19T03:54:25;4.80;;;2.53;;
1082;SDS011;530;51.448;7.238;2023-09-19T03:56:51;10.10;;;2.10;;
1082;SDS011;530;51.448;7.238;2023-09-19T03:59:17;5.17;;;2.30;;
1082;SDS011;530;51.448;7.238;2023-09-19T04:01:43;4.90;;;2.07;;
1082;SDS011;530;51.448;7.238;2023-09-19T04:04:09;5.03;;;2.27;;
1082;SDS011;530;51.448;7.238;2023-09-19T04:06:35;8.33;;;2.37;;
1082;SDS011;530;51.448;7.238;2023-09-19T04:09:03;5.77;;;2.10;;
1082;SDS011;530;51.448;7.238;2023-09-19T04:11:32;4.00;;;2.10;;
1082;SDS011;530;51.448;7.238;2023-09-19T04:13:58;6.70;;;2.73;;
1082;SDS011;530;51.448;7.238;2023-09-19T04:16:24;7.20;;;2.60;;
1082;SDS011;530;51.448;7.238;2023-09-19T04:18:50;5.50;;;1.90;;
1082;SDS011;530;51.448;7.238;2023-09-19T04:21:16;2.93;;;1.20;;
1082;SDS011;530;51.448;7.238;2023-09-19T04:23:42;7.33;;;2.10;;
1082;SDS011;530;51.448;7.238;2023-09-19T04:26:08;3.80;;;1.70;;
1082;SDS011;530;51.448;7.238;2023-09-19T04:28:33;7.60;;;2.80;;
1082;SDS011;530;51.448;7.238;2023-09-19T04:31:01;6.63;;;2.53;;
1082;SDS011;530;51.448;7.238;2023-09-19T04:33:27;6.90;;;2.20;;
1082;SDS011;530;51.448;7.238;2023-09-19T04:35:52;6.47;;;2.20;;
1082;SDS011;530;51.448;7.238;2023-09-19T04:38:18;6.20;;;1.80;;
1082;SDS011;530;51.448;7.238;2023-09-19T04:40:44;6.27;;;2.17;;
1082;SDS011;530;51.448;7.238;2023-09-19T04:43:11;6.30;;;2.97;;
1082;SDS011;530;51.448;7.238;2023-09-19T04:45:36;8.87;;;2.37;;
1082;SDS011;530;51.448;7.238;2023-09-19T04:48:04;6.10;;;1.93;;
1082;SDS011;530;51.448;7.238;2023-09-19T04:50:32;8.40;;;2.80;;
1082;SDS011;530;51.448;7.238;2023-09-19T04:52:59;6.40;;;2.10;;
1082;SDS011;530;51.448;7.238;2023-09-19T04:55:26;3.87;;;1.90;;
1082;SDS011;530;51.448;7.238;2023-09-19T04:57:52;5.03;;;2.23;;
1082;SDS011;530;51.448;7.238;2023-09-19T05:00:21;5.33;;;1.80;;
1082;SDS011;530;51.448;7.238;2023-09-19T05:02:54;6.00;;;2.33;;
1082;SDS011;530;51.448;7.238;2023-09-19T05:05:24;5.80;;;2.80;;
1082;SDS011;530;51.448;7.238;2023-09-19T05:07:51;9.80;;;2.83;;
1082;SDS011;530;51.448;7.238;2023-09-19T05:10:18;5.70;;;2.70;;
1082;SDS011;530;51.448;7.238;2023-09-19T05:12:44;4.90;;;2.10;;
1082;SDS011;530;51.448;7.238;2023-09-19T05:15:12;3.53;;;1.70;;
1082;SDS011;530;51.448;7.238;2023-09-19T05:17:40;4.70;;;2.27;;
1082;SDS011;530;51.448;7.238;2023-09-19T05:20:06;5.87;;;2.17;;
1082;SDS011;530;51.448;7.238;2023-09-19T05:22:41;6.77;;;2.40;;
1082;SDS011;530;51.448;7.238;2023-09-19T05:25:08;6.13;;;2.20;;
1082;SDS011;530;51.448;7.238;2023-09-19T05:27:35;5.80;;;1.80;;
1082;SDS011;530;51.448;7.238;2023-09-19T05:30:00;5.10;;;2.00;;
1082;SDS011;530;51.448;7.238;2023-09-19T05:32:26;5.77;;;2.27;;
1082;SDS011;530;51.448;7.238;2023-09-19T05:34:52;6.10;;;2.20;;
1082;SDS011;530;51.448;7.238;2023-09-19T05:37:18;7.10;;;2.60;;
1082;SDS011;530;51.448;7.238;2023-09-19T05:39:44;7.57;;;2.90;;
1082;SDS011;530;51.448;7.238;2023-09-19T05:42:10;6.87;;;2.20;;
1082;SDS011;530;51.448;7.238;2023-09-19T05:44:36;7.80;;;2.80;;
1082;SDS011;530;51.448;7.238;2023-09-19T05:47:02;5.20;;;2.07;;
1082;SDS011;530;51.448;7.238;2023-09-19T05:49:29;5.13;;;2.07;;
1082;SDS011;530;51.448;7.238;2023-09-19T05:51:54;5.70;;;2.10;;
1082;SDS011;530;51.448;7.238;2023-09-19T05:54:21;6.00;;;2.40;;
1082;SDS011;530;51.448;7.238;2023-09-19T05:56:47;9.10;;;2.70;;
1082;SDS011;530;51.448;7.238;2023-09-19T05:59:14;9.13;;;3.57;;
1082;SDS011;530;51.448;7.238;2023-09-19T06:01:43;6.90;;;2.20;;
1082;SDS011;530;51.448;7.238;2023-09-19T06:04:08;9.90;;;2.83;;
1082;SDS011;530;51.448;7.238;2023-09-19T06:06:34;11.00;;;2.67;;
1082;SDS011;530;51.448;7.238;2023-09-19T06:09:04;8.00;;;2.07;;
1082;SDS011;530;51.448;7.238;2023-09-19T06:11:36;4.93;;;2.10;;
1082;SDS011;530;51.448;7.238;2023-09-19T06:14:02;4.63;;;2.07;;
1082;SDS011;530;51.448;7.238;2023-09-19T06:16:29;9.47;;;2.37;;
1082;SDS011;530;51.448;7.238;2023-09-19T06:18:57;8.20;;;2.90;;
1082;SDS011;530;51.448;7.238;2023-09-19T06:21:23;6.70;;;2.67;;
1082;SDS011;530;51.448;7.238;2023-09-19T06:23:49;6.53;;;2.53;;
1082;SDS011;530;51.448;7.238;2023-09-19T06:26:15;5.10;;;1.90;;
1082;SDS011;530;51.448;7.238;2023-09-19T06:28:41;6.23;;;2.37;;
1082;SDS011;530;51.448;7.238;2023-09-19T06:31:07;9.30;;;2.27;;
1082;SDS011;530;51.448;7.238;2023-09-19T06:33:35;6.80;;;2.03;;
1082;SDS011;530;51.448;7.238;2023-09-19T06:36:04;7.57;;;2.57;;
1082;SDS011;530;51.448;7.238;2023-09-19T06:38:31;5.10;;;2.10;;
1082;SDS011;530;51.448;7.238;2023-09-19T06:40:59;10.73;;;2.87;;
1082;SDS011;530;51.448;7.238;2023-09-19T06:43:26;5.37;;;2.17;;
1082;SDS011;530;51.448;7.238;2023-09-19T06:45:55;6.97;;;1.80;;
1082;SDS011;530;51.448;7.238;2023-09-19T06:48:22;8.07;;;2.23;;
1082;SDS011;530;51.448;7.238;2023-09-19T06:50:50;8.33;;;2.20;;
1082;SDS011;530;51.448;7.238;2023-09-19T06:53:17;9.17;;;2.73;;
1082;SDS011;530;51.448;7.238;2023-09-19T06:55:43;6.87;;;2.10;;
1082;SDS011;530;51.448;7.238;2023-09-19T06:58:10;4.00;;;2.30;;
1082;SDS011;530;51.448;7.238;2023-09-19T07:00:36;9.30;;;2.73;;
1082;SDS011;530;51.448;7.238;2023-09-19T07:03:06;9.00;;;2.30;;
1082;SDS011;530;51.448;7.238;2023-09-19T07:05:38;3.57;;;2.00;;
1082;SDS011;530;51.448;7.238;2023-09-19T07:08:05;4.00;;;1.70;;
1082;SDS011;530;51.448;7.238;2023-09-19T07:10:32;5.63;;;2.70;;
1082;SDS011;530;51.448;7.238;2023-09-19T07:13:02;5.57;;;2.40;;
1082;SDS011;530;51.448;7.238;2023-09-19T07:15:32;4.50;;;2.50;;
1082;SDS011;530;51.448;7.238;2023-09-19T07:18:04;3.80;;;1.97;;
1082;SDS011;530;51.448;7.238;2023-09-19T07:20:31;9.90;;;2.70;;
1082;SDS011;530;51.448;7.238;2023-09-19T07:23:00;8.23;;;2.20;;
1082;SDS011;530;51.448;7.238;2023-09-19T07:25:26;7.00;;;3.07;;
1082;SDS011;530;51.448;7.238;2023-09-19T07:27:54;12.20;;;3.37;;
1082;SDS011;530;51.448;7.238;2023-09-19T07:30:20;8.97;;;2.67;;
1082;SDS011;530;51.448;7.238;2023-09-19T07:32:46;13.17;;;3.20;;
1082;SDS011;530;51.448;7.238;2023-09-19T07:35:12;5.57;;;2.30;;
1082;SDS011;530;51.448;7.238;2023-09-19T07:37:38;9.13;;;2.20;;
1082;SDS011;530;51.448;7.238;2023-09-19T07:40:04;6.80;;;2.30;;
1082;SDS011;530;51.448;7.238;2023-09-19T07:42:34;9.90;;;3.43;;
1082;SDS011;530;51.448;7.238;2023-09-19T07:45:06;8.50;;;2.60;;
1082;SDS011;530;51.448;7.238;2023-09-19T07:47:32;6.40;;;2.17;;
1082;SDS011;530;51.448;7.238;2023-09-19T07:49:59;7.73;;;2.33;;
1082;SDS011;530;51.448;7.238;2023-09-19T07:52:27;6.87;;;2.10;;
1082;SDS011;530;51.448;7.238;2023-09-19T07:54:53;5.27;;;2.93;;
1082;SDS011;530;51.448;7.238;2023-09-19T07:57:19;8.53;;;1.97;;
1082;SDS011;530;51.448;7.238;2023-09-19T07:59:45;7.27;;;2.60;;
1082;SDS011;530;51.448;7.238;2023-09-19T08:02:11;9.00;;;3.47;;
1082;SDS011;530;51.448;7.238;2023-09-19T08:04:44;8.20;;;2.67;;
1082;SDS011;530;51.448;7.238;2023-09-19T08:07:14;5.33;;;2.37;;
1082;SDS011;530;51.448;7.238;2023-09-19T08:09:40;7.53;;;2.37;;
1082;SDS011;530;51.448;7.238;2023-09-19T08:12:06;7.20;;;2.50;;
1082;SDS011;530;51.448;7.238;2023-09-19T08:14:35;8.30;;;2.37;;
1082;SDS011;530;51.448;7.238;2023-09-19T08:17:02;8.13;;;2.93;;
1082;SDS011;530;51.448;7.238;2023-09-19T08:19:30;6.07;;;2.20;;
1082;SDS011;530;51.448;7.238;2023-09-19T08:21:59;8.33;;;2.73;;
1082;SDS011;530;51.448;7.238;2023-09-19T08:24:29;5.93;;;2.23;;
1082;SDS011;530;51.448;7.238;2023-09-19T08:26:55;5.90;;;2.30;;
1082;SDS011;530;51.448;7.238;2023-09-19T08:29:22;10.27;;;2.30;;
1082;SDS011;530;51.448;7.238;2023-09-19T08:31:55;9.73;;;2.37;;
1082;SDS011;530;51.448;7.238;2023-09-19T08:34:25;5.93;;;2.50;;
1082;SDS011;530;51.448;7.238;2023-09-19T08:36:51;5.67;;;2.53;;
1082;SDS011;530;51.448;7.238;2023-09-19T08:39:21;9.30;;;2.60;;
1082;SDS011;530;51.448;7.238;2023-09-19T08:41:59;7.10;;;2.47;;
1082;SDS011;530;51.448;7.238;2023-09-19T08:44:26;7.30;;;3.20;;
1082;SDS011;530;51.448;7.238;2023-09-19T08:46:59;8.13;;;2.30;;
1082;SDS011;530;51.448;7.238;2023-09-19T08:49:36;7.70;;;2.23;;
1082;SDS011;530;51.448;7.238;2023-09-19T08:52:20;5.77;;;2.53;;
1082;SDS011;530;51.448;7.238;2023-09-19T08:54:51;5.60;;;2.00;;
1082;SDS011;530;51.448;7.238;2023-09-19T08:57:20;8.40;;;2.80;;
1082;SDS011;530;51.448;7.238;2023-09-19T08:59:48;6.87;;;3.27;;
1082;SDS011;530;51.448;7.238;2023-09-19T09:02:17;11.03;;;2.57;;
1082;SDS011;530;51.448;7.238;2023-09-19T09:04:45;5.50;;;1.80;;
1082;SDS011;530;51.448;7.238;2023-09-19T09:07:12;6.60;;;2.70;;
1082;SDS011;530;51.448;7.238;2023-09-19T09:09:38;10.10;;;2.70;;
1082;SDS011;530;51.448;7.238;2023-09-19T09:12:16;4.60;;;1.90;;
1082;SDS011;530;51.448;7.238;2023-09-19T09:14:45;13.03;;;2.40;;
1082;SDS011;530;51.448;7.238;2023-09-19T09:17:14;7.07;;;2.40;;
1082;SDS011;530;51.448;7.238;2023-09-19T09:19:40;8.53;;;2.93;;
1082;SDS011;530;51.448;7.238;2023-09-19T09:22:10;6.50;;;2.10;;
1082;SDS011;530;51.448;7.238;2023-09-19T09:24:37;10.07;;;2.60;;
1082;SDS011;530;51.448;7.238;2023-09-19T09:27:15;6.60;;;1.87;;
1082;SDS011;530;51.448;7.238;2023-09-19T09:32:22;4.90;;;2.33;;
1082;SDS011;530;51.448;7.238;2023-09-19T09:37:18;7.70;;;3.13;;
1082;SDS011;530;51.448;7.238;2023-09-19T09:39:49;8.50;;;2.37;;
1082;SDS011;530;51.448;7.238;2023-09-19T09:47:48;7.73;;;2.33;;
1082;SDS011;530;51.448;7.238;2023-09-19T09:53:05;5.33;;;2.40;;
1082;SDS011;530;51.448;7.238;2023-09-19T09:58:35;4.03;;;2.00;;
1082;SDS011;530;51.448;7.238;2023-09-19T10:01:03;10.00;;;2.70;;
1082;SDS011;530;51.448;7.238;2023-09-19T10:03:36;9.40;;;2.60;;
1082;SDS011;530;51.448;7.238;2023-09-19T10:06:11;4.07;;;2.00;;
1082;SDS011;530;51.448;7.238;2023-09-19T10:09:05;5.00;;;2.13;;
1082;SDS011;530;51.448;7.238;2023-09-19T10:12:02;8.23;;;2.60;;
1082;SDS011;530;51.448;7.238;2023-09-19T10:14:33;6.67;;;2.00;;
1082;SDS011;530;51.448;7.238;2023-09-19T10:17:04;6.67;;;2.17;;
1082;SDS011;530;51.448;7.238;2023-09-19T10:19:37;7.77;;;2.40;;
1082;SDS011;530;51.448;7.238;2023-09-19T10:22:22;6.17;;;1.90;;
1082;SDS011;530;51.448;7.238;2023-09-19T10:24:50;7.20;;;2.73;;
1082;SDS011;530;51.448;7.238;2023-09-19T10:27:19;6.23;;;2.20;;
1082;SDS011;530;51.448;7.238;2023-09-19T10:29:48;4.13;;;2.30;;
1082;SDS011;530;51.448;7.238;2023-09-19T10:32:19;8.47;;;2.60;;
1082;SDS011;530;51.448;7.238;2023-09-19T10:34:47;4.60;;;1.83;;
1082;SDS011;530;51.448;7.238;2023-09-19T10:37:13;4.13;;;1.80;;
1082;SDS011;530;51.448;7.238;2023-09-19T10:39:45;7.30;;;2.87;;
1082;SDS011;530;51.448;7.238;2023-09-19T10:42:14;6.03;;;2.70;;
1082;SDS011;530;51.448;7.238;2023-09-19T10:44:45;8.00;;;2.80;;
1082;SDS011;530;51.448;7.238;2023-09-19T10:47:18;8.30;;;2.37;;
1082;SDS011;530;51.448;7.238;2023-09-19T10:49:45;6.33;;;2.40;;
1082;SDS011;530;51.448;7.238;2023-09-19T10:52:12;7.80;;;2.37;;
1082;SDS011;530;51.448;7.238;2023-09-19T10:54:45;5.60;;;2.13;;
1082;SDS011;530;51.448;7.238;2023-09-19T10:57:21;9.10;;;3.13;;
1082;SDS011;530;51.448;7.238;2023-09-19T11:00:10;8.93;;;2.83;;
1082;SDS011;530;51.448;7.238;2023-09-19T11:05:44;7.27;;;2.07;;
1082;SDS011;530;51.448;7.238;2023-09-19T11:30:44;3.73;;;1.70;;
1082;SDS011;530;51.448;7.238;2023-09-19T11:36:13;5.87;;;2.10;;
1082;SDS011;530;51.448;7.238;2023-09-19T11:47:14;5.20;;;1.80;;
1082;SDS011;530;51.448;7.238;2023-09-19T11:49:28;2.70;;;1.77;;
1082;SDS011;530;51.448;7.238;2023-09-19T11:51:57;3.90;;;1.87;;
1082;SDS011;530;51.448;7.238;2023-09-19T11:54:26;8.53;;;2.20;;
1082;SDS011;530;51.448;7.238;2023-09-19T11:56:57;8.57;;;2.30;;
1082;SDS011;530;51.448;7.238;2023-09-19T11:59:25;4.00;;;2.07;;
1082;SDS011;530;51.448;7.238;2023-09-19T12:01:56;7.90;;;2.20;;
1082;SDS011;530;51.448;7.238;2023-09-19T12:04:33;7.00;;;2.27;;
1082;SDS011;530;51.448;7.238;2023-09-19T12:07:02;4.87;;;2.37;;
1082;SDS011;530;51.448;7.238;2023-09-19T12:09:30;5.60;;;1.90;;
1082;SDS011;530;51.448;7.238;2023-09-19T12:11:56;5.97;;;2.10;;
1082;SDS011;530;51.448;7.238;2023-09-19T12:14:23;4.10;;;2.13;;
1082;SDS011;530;51.448;7.238;2023-09-19T12:16:57;4.97;;;1.93;;
1082;SDS011;530;51.448;7.238;2023-09-19T12:19:23;4.90;;;2.27;;
1082;SDS011;530;51.448;7.238;2023-09-19T12:22:08;4.90;;;2.13;;
1082;SDS011;530;51.448;7.238;2023-09-19T12:24:34;4.10;;;2.00;;
1082;SDS011;530;51.448;7.238;2023-09-19T12:27:06;5.20;;;2.37;;
1082;SDS011;530;51.448;7.238;2023-09-19T12:29:41;5.60;;;2.20;;
1082;SDS011;530;51.448;7.238;2023-09-19T12:32:13;3.80;;;2.10;;
1082;SDS011;530;51.448;7.238;2023-09-19T12:34:42;4.50;;;2.17;;
1082;SDS011;530;51.448;7.238;2023-09-19T12:37:15;4.93;;;2.00;;
1082;SDS011;530;51.448;7.238;2023-09-19T12:39:46;4.57;;;2.17;;
1082;SDS011;530;51.448;7.238;2023-09-19T12:42:17;4.43;;;2.00;;
1082;SDS011;530;51.448;7.238;2023-09-19T12:44:45;6.63;;;2.77;;
1082;SDS011;530;51.448;7.238;2023-09-19T12:47:14;4.03;;;2.00;;
1082;SDS011;530;51.448;7.238;2023-09-19T12:52:50;5.47;;;2.33;;
1082;SDS011;530;51.448;7.238;2023-09-19T13:00:45;3.90;;;2.40;;
1082;SDS011;530;51.448;7.238;2023-09-19T13:05:55;3.20;;;1.90;;
1082;SDS011;530;51.448;7.238;2023-09-19T13:13:47;3.03;;;1.70;;
1082;SDS011;530;51.448;7.238;2023-09-19T13:16:16;3.67;;;1.53;;
1082;SDS011;530;51.448;7.238;2023-09-19T13:18:51;5.57;;;2.23;;
1082;SDS011;530;51.448;7.238;2023-09-19T13:21:34;4.00;;;1.77;;
1082;SDS011;530;51.448;7.238;2023-09-19T13:24:24;2.60;;;1.20;;
1082;SDS011;530;51.448;7.238;2023-09-19T13:26:54;6.47;;;1.40;;
1082;SDS011;530;51.448;7.238;2023-09-19T13:29:19;3.60;;;1.67;;
1082;SDS011;530;51.448;7.238;2023-09-19T13:31:46;2.00;;;1.30;;
1082;SDS011;530;51.448;7.238;2023-09-19T13:34:18;4.30;;;1.70;;
1082;SDS011;530;51.448;7.238;2023-09-19T13:36:45;2.77;;;1.60;;
1082;SDS011;530;51.448;7.238;2023-09-19T13:39:17;3.23;;;1.80;;
1082;SDS011;530;51.448;7.238;2023-09-19T13:41:49;4.73;;;1.87;;
1082;SDS011;530;51.448;7.238;2023-09-19T13:44:15;2.73;;;1.53;;
1082;SDS011;530;51.448;7.238;2023-09-19T13:46:42;5.33;;;2.00;;
1082;SDS011;530;51.448;7.238;2023-09-19T13:49:11;6.83;;;2.90;;
1082;SDS011;530;51.448;7.238;2023-09-19T13:51:36;4.50;;;1.43;;
1082;SDS011;530;51.448;7.238;2023-09-19T13:54:02;3.43;;;1.47;;
1082;SDS011;530;51.448;7.238;2023-09-19T13:56:28;6.30;;;1.80;;
1082;SDS011;530;51.448;7.238;2023-09-19T13:58:56;3.07;;;1.50;;
1082;SDS011;530;51.448;7.238;2023-09-19T14:01:21;4.93;;;2.00;;
1082;SDS011;530;51.448;7.238;2023-09-19T14:03:47;3.40;;;1.40;;
1082;SDS011;530;51.448;7.238;2023-09-19T14:06:14;3.40;;;1.23;;
1082;SDS011;530;51.448;7.238;2023-09-19T14:08:43;2.97;;;1.47;;
1082;SDS011;530;51.448;7.238;2023-09-19T14:11:12;5.33;;;1.40;;
1082;SDS011;530;51.448;7.238;2023-09-19T14:13:39;5.30;;;1.60;;
1082;SDS011;530;51.448;7.238;2023-09-19T14:16:05;3.03;;;1.70;;
1082;SDS011;530;51.448;7.238;2023-09-19T14:18:33;4.53;;;1.80;;
1082;SDS011;530;51.448;7.238;2023-09-19T14:21:06;3.77;;;1.27;;
1082;SDS011;530;51.448;7.238;2023-09-19T14:23:38;3.77;;;1.90;;
1082;SDS011;530;51.448;7.238;2023-09-19T14:26:04;2.73;;;1.27;;
1082;SDS011;530;51.448;7.238;2023-09-19T14:28:33;2.50;;;1.10;;
1082;SDS011;530;51.448;7.238;2023-09-19T14:31:08;2.50;;;1.10;;
1082;SDS011;530;51.448;7.238;2023-09-19T14:33:35;2.70;;;1.33;;
1082;SDS011;530;51.448;7.238;2023-09-19T14:36:04;3.53;;;1.00;;
1082;SDS011;530;51.448;7.238;2023-09-19T14:38:35;4.80;;;1.47;;
1082;SDS011;530;51.448;7.238;2023-09-19T14:41:02;1.93;;;1.00;;
1082;SDS011;530;51.448;7.238;2023-09-19T14:43:31;2.30;;;1.00;;
1082;SDS011;530;51.448;7.238;2023-09-19T14:46:06;3.23;;;1.10;;
1082;SDS011;530;51.448;7.238;2023-09-19T14:48:38;2.70;;;1.10;;
1082;SDS011;530;51.448;7.238;2023-09-19T14:51:05;2.90;;;1.30;;
1082;SDS011;530;51.448;7.238;2023-09-19T14:53:34;2.90;;;1.20;;
1082;SDS011;530;51.448;7.238;2023-09-19T14:56:01;7.03;;;1.50;;
1082;SDS011;530;51.448;7.238;2023-09-19T14:58:30;3.73;;;1.10;;
1082;SDS011;530;51.448;7.238;2023-09-19T15:01:06;3.27;;;1.30;;
1082;SDS011;530;51.448;7.238;2023-09-19T15:03:33;3.10;;;1.10;;
1082;SDS011;530;51.448;7.238;2023-09-19T15:06:05;2.87;;;1.10;;
1082;SDS011;530;51.448;7.238;2023-09-19T15:08:35;5.83;;;1.23;;
1082;SDS011;530;51.448;7.238;2023-09-19T15:11:06;4.17;;;1.33;;
1082;SDS011;530;51.448;7.238;2023-09-19T15:13:32;3.73;;;1.33;;
1082;SDS011;530;51.448;7.238;2023-09-19T15:16:01;2.30;;;1.00;;
1082;SDS011;530;51.448;7.238;2023-09-19T15:18:28;3.23;;;1.47;;
1082;SDS011;530;51.448;7.238;2023-09-19T15:21:01;2.13;;;1.10;;
1082;SDS011;530;51.448;7.238;2023-09-19T15:23:29;3.10;;;1.30;;
1082;SDS011;530;51.448;7.238;2023-09-19T15:25:56;2.03;;;0.80;;
1082;SDS011;530;51.448;7.238;2023-09-19T15:28:22;4.07;;;1.23;;
1082;SDS011;530;51.448;7.238;2023-09-19T15:30:48;1.93;;;1.20;;
1082;SDS011;530;51.448;7.238;2023-09-19T15:33:27;1.93;;;1.00;;
1082;SDS011;530;51.448;7.238;2023-09-19T15:36:04;3.03;;;1.00;;
1082;SDS011;530;51.448;7.238;2023-09-19T15:38:31;2.73;;;1.37;;
1082;SDS011;530;51.448;7.238;2023-09-19T15:41:19;2.30;;;1.20;;
1082;SDS011;530;51.448;7.238;2023-09-19T15:43:45;2.30;;;1.70;;
1082;SDS011;530;51.448;7.238;2023-09-19T15:46:11;3.47;;;1.30;;
1082;SDS011;530;51.448;7.238;2023-09-19T15:48:38;2.60;;;0.80;;
1082;SDS011;530;51.448;7.238;2023-09-19T15:51:04;3.37;;;0.87;;
1082;SDS011;530;51.448;7.238;2023-09-19T15:56:12;2.93;;;1.10;;
1082;SDS011;530;51.448;7.238;2023-09-19T15:58:39;3.47;;;1.00;;
1082;SDS011;530;51.448;7.238;2023-09-19T16:01:05;2.50;;;1.23;;
1082;SDS011;530;51.448;7.238;2023-09-19T16:03:34;2.30;;;0.87;;
1082;SDS011;530;51.448;7.238;2023-09-19T16:06:01;2.13;;;0.80;;
1082;SDS011;530;51.448;7.238;2023-09-19T16:08:32;2.10;;;1.00;;
1082;SDS011;530;51.448;7.238;2023-09-19T16:11:00;1.50;;;0.90;;
1082;SDS011;530;51.448;7.238;2023-09-19T16:13:25;1.40;;;0.87;;
1082;SDS011;530;51.448;7.238;2023-09-19T16:15:53;2.30;;;1.13;;
1082;SDS011;530;51.448;7.238;2023-09-19T16:18:19;1.87;;;1.27;;
1082;SDS011;530;51.448;7.238;2023-09-19T16:20:45;3.17;;;1.23;;
1082;SDS011;530;51.448;7.238;2023-09-19T16:23:11;3.70;;;1.00;;
1082;SDS011;530;51.448;7.238;2023-09-19T16:25:37;3.40;;;1.27;;
1082;SDS011;530;51.448;7.238;2023-09-19T16:28:03;2.73;;;0.90;;
1082;SDS011;530;51.448;7.238;2023-09-19T16:30:31;1.97;;;0.80;;
1082;SDS011;530;51.448;7.238;2023-09-19T16:32:59;2.00;;;1.10;;
1082;SDS011;530;51.448;7.238;2023-09-19T16:35:25;5.10;;;1.13;;
1082;SDS011;530;51.448;7.238;2023-09-19T16:37:51;2.40;;;1.53;;
1082;SDS011;530;51.448;7.238;2023-09-19T16:40:17;3.57;;;1.20;;
1082;SDS011;530;51.448;7.238;2023-09-19T16:42:42;1.33;;;0.80;;
1082;SDS011;530;51.448;7.238;2023-09-19T16:45:08;4.60;;;1.57;;
1082;SDS011;530;51.448;7.238;2023-09-19T16:47:37;3.00;;;1.27;;
1082;SDS011;530;51.448;7.238;2023-09-19T16:50:03;4.30;;;1.63;;
1082;SDS011;530;51.448;7.238;2023-09-19T16:52:30;1.60;;;0.93;;
1082;SDS011;530;51.448;7.238;2023-09-19T16:54:56;1.57;;;0.73;;
1082;SDS011;530;51.448;7.238;2023-09-19T16:57:22;4.90;;;1.20;;
1082;SDS011;530;51.448;7.238;2023-09-19T16:59:48;3.70;;;1.00;;
1082;SDS011;530;51.448;7.238;2023-09-19T17:02:15;4.90;;;1.10;;
1082;SDS011;530;51.448;7.238;2023-09-19T17:04:44;1.90;;;0.90;;
1082;SDS011;530;51.448;7.238;2023-09-19T17:07:09;2.60;;;1.27;;